Time;durP1;ratioP1;P1;durP2;ratioP2;P2;SDS_P1;SDS_P2;PMS_P1;PMS_P2;Temp;Humidity;BMP_temperature;BMP_pressure;BME280_temperature;BME280_humidity;BME280_pressure;Samples;Min_cycle;Max_cycle;Signal;HPM_P1;HPM_P2
2022/04/09 00:01:26;;;;;;;5.07;2.50;;;;;;;;;;5067379;28;20494;-75
2022/04/09 00:03:57;;;;;;;4.47;2.75;;;;;;;;;;5086096;28;20485;-75
2022/04/09 00:06:26;;;;;;;10.30;3.13;;;;;;;;;;5086113;28;20052;-75
2022/04/09 00:08:56;;;;;;;5.13;3.13;;;;;;;;;;5085872;28;20059;-75
2022/04/09 00:11:26;;;;;;;6.70;3.22;;;;;;;;;;5085492;28;20075;-75
2022/04/09 00:13:56;;;;;;;7.35;2.65;;;;;;;;;;5084794;28;20503;-75
2022/04/09 00:16:25;;;;;;;10.85;3.55;;;;;;;;;;5084661;28;20048;-75
2022/04/09 00:18:55;;;;;;;6.15;2.55;;;;;;;;;;5084392;28;20047;-74
2022/04/09 00:21:28;;;;;;;10.40;2.90;;;;;;;;;;5084915;28;20423;-75
2022/04/09 00:23:58;;;;;;;8.00;2.45;;;;;;;;;;5085811;28;20055;-75
2022/04/09 00:26:28;;;;;;;9.43;2.70;;;;;;;;;;5084808;28;20060;-74
2022/04/09 00:28:58;;;;;;;17.58;3.33;;;;;;;;;;5088972;28;20069;-75
2022/04/09 00:31:28;;;;;;;6.82;3.33;;;;;;;;;;5090091;28;20762;-76
2022/04/09 00:33:57;;;;;;;11.52;3.83;;;;;;;;;;5089251;28;20055;-77
2022/04/09 00:36:27;;;;;;;9.43;3.28;;;;;;;;;;5089703;28;20410;-76
2022/04/09 00:38:57;;;;;;;9.35;2.63;;;;;;;;;;5072504;28;20048;-77
2022/04/09 00:41:28;;;;;;;7.13;2.63;;;;;;;;;;5071400;28;20048;-76
2022/04/09 00:43:58;;;;;;;9.10;3.63;;;;;;;;;;5089521;28;20047;-76
2022/04/09 00:46:27;;;;;;;7.28;3.20;;;;;;;;;;5070717;28;20052;-77
2022/04/09 00:48:59;;;;;;;12.13;3.53;;;;;;;;;;5089925;28;20526;-75
2022/04/09 00:51:28;;;;;;;7.63;3.25;;;;;;;;;;5089239;28;20059;-75
2022/04/09 00:54:00;;;;;;;10.85;3.63;;;;;;;;;;5089329;28;20052;-76
2022/04/09 00:56:31;;;;;;;7.97;3.00;;;;;;;;;;5089837;28;20055;-75
2022/04/09 00:59:11;;;;;;;7.50;2.67;;;;;;;;;;5089760;28;20040;-75
2022/04/09 01:01:41;;;;;;;9.55;3.00;;;;;;;;;;5089419;28;20407;-75
2022/04/09 01:04:12;;;;;;;6.00;2.67;;;;;;;;;;5089311;28;20059;-75
2022/04/09 01:06:42;;;;;;;4.85;2.78;;;;;;;;;;5070441;28;20063;-77
2022/04/09 01:09:12;;;;;;;10.55;2.70;;;;;;;;;;5069600;28;20044;-75
2022/04/09 01:11:42;;;;;;;6.28;2.58;;;;;;;;;;5086962;28;20051;-75
2022/04/09 01:14:12;;;;;;;7.28;2.80;;;;;;;;;;5086085;28;20040;-75
2022/04/09 01:16:42;;;;;;;13.95;2.90;;;;;;;;;;5051230;28;20056;-75
2022/04/09 01:19:12;;;;;;;6.43;2.80;;;;;;;;;;5067489;28;20044;-75
2022/04/09 01:21:43;;;;;;;7.93;2.92;;;;;;;;;;5068866;28;20051;-75
2022/04/09 01:24:13;;;;;;;9.45;2.60;;;;;;;;;;5068125;28;20047;-75
2022/04/09 01:26:50;;;;;;;13.43;2.75;;;;;;;;;;5068298;28;20629;-76
2022/04/09 01:29:26;;;;;;;9.23;2.55;;;;;;;;;;5069667;28;20063;-76
2022/04/09 01:31:56;;;;;;;13.50;3.03;;;;;;;;;;5070087;28;20545;-76
2022/04/09 01:34:26;;;;;;;10.07;2.70;;;;;;;;;;5069505;28;20056;-76
2022/04/09 01:36:57;;;;;;;4.88;2.25;;;;;;;;;;5070061;28;20056;-76
2022/04/09 01:39:27;;;;;;;8.70;2.85;;;;;;;;;;5086990;28;20068;-76
2022/04/09 01:41:57;;;;;;;7.78;3.65;;;;;;;;;;5069392;28;20631;-76
2022/04/09 01:44:28;;;;;;;4.82;2.78;;;;;;;;;;5069972;28;20063;-76
2022/04/09 01:46:58;;;;;;;10.48;2.65;;;;;;;;;;5069397;28;20060;-76
2022/04/09 01:49:28;;;;;;;4.70;2.45;;;;;;;;;;5088163;28;20048;-76
2022/04/09 01:51:57;;;;;;;6.18;1.67;;;;;;;;;;5069735;28;20074;-76
2022/04/09 01:54:27;;;;;;;11.65;2.13;;;;;;;;;;5070157;28;20040;-76
2022/04/09 01:56:57;;;;;;;9.48;2.00;;;;;;;;;;5088217;28;20407;-76
2022/04/09 01:59:27;;;;;;;5.15;1.98;;;;;;;;;;5069257;28;20090;-75
2022/04/09 02:01:58;;;;;;;4.03;2.08;;;;;;;;;;5069263;28;20812;-77
2022/04/09 02:04:28;;;;;;;;;;;;;;;;;;5069528;28;20426;-75
2022/04/09 02:06:58;;;;;;;4.03;1.98;;;;;;;;;;5068780;28;19924;-75
2022/04/09 02:09:29;;;;;;;12.38;1.77;;;;;;;;;;5087801;28;20677;-75
2022/04/09 02:11:59;;;;;;;7.38;2.10;;;;;;;;;;5085964;28;20585;-77
2022/04/09 02:14:30;;;;;;;4.05;1.85;;;;;;;;;;5069260;28;20059;-75
2022/04/09 02:17:00;;;;;;;7.75;2.08;;;;;;;;;;5087552;28;20048;-75
2022/04/09 02:19:30;;;;;;;9.02;2.03;;;;;;;;;;5069324;28;20048;-76
2022/04/09 02:22:00;;;;;;;4.13;1.50;;;;;;;;;;5087449;28;20051;-75
2022/04/09 02:24:30;;;;;;;13.05;2.22;;;;;;;;;;5087841;28;20048;-75
2022/04/09 02:27:00;;;;;;;5.53;1.85;;;;;;;;;;5068681;28;20400;-75
2022/04/09 02:29:30;;;;;;;9.05;1.88;;;;;;;;;;5087355;28;20071;-75
2022/04/09 02:32:02;;;;;;;12.63;2.15;;;;;;;;;;5068140;28;20067;-75
2022/04/09 02:34:34;;;;;;;4.57;1.70;;;;;;;;;;5068618;28;20048;-75
2022/04/09 02:37:07;;;;;;;6.53;2.25;;;;;;;;;;5068998;28;20044;-75
2022/04/09 02:39:38;;;;;;;6.68;2.20;;;;;;;;;;5068687;28;20073;-75
2022/04/09 02:42:08;;;;;;;10.20;2.28;;;;;;;;;;5086798;28;20546;-75
2022/04/09 02:44:39;;;;;;;4.93;2.00;;;;;;;;;;5068942;28;20059;-76
2022/04/09 02:47:10;;;;;;;10.43;2.30;;;;;;;;;;5067956;28;20056;-75
2022/04/09 02:49:40;;;;;;;9.63;2.20;;;;;;;;;;5067142;28;20294;-75
2022/04/09 02:52:11;;;;;;;13.70;2.15;;;;;;;;;;5067905;28;20056;-75
2022/04/09 02:54:41;;;;;;;10.77;2.60;;;;;;;;;;5087285;28;20045;-75
2022/04/09 02:57:17;;;;;;;12.55;2.28;;;;;;;;;;5068134;28;20048;-76
2022/04/09 02:59:46;;;;;;;9.80;1.95;;;;;;;;;;5067613;28;20060;-75
2022/04/09 03:02:17;;;;;;;7.47;1.65;;;;;;;;;;5068156;28;20062;-75
2022/04/09 03:04:47;;;;;;;7.50;1.73;;;;;;;;;;5067724;28;20051;-75
2022/04/09 03:07:17;;;;;;;9.98;1.63;;;;;;;;;;5087240;28;20055;-76
2022/04/09 03:09:47;;;;;;;8.77;1.88;;;;;;;;;;5068446;28;20396;-75
2022/04/09 03:12:16;;;;;;;8.90;2.28;;;;;;;;;;5086741;28;20078;-75
2022/04/09 03:14:46;;;;;;;10.57;1.90;;;;;;;;;;5087186;28;20059;-75
2022/04/09 03:17:17;;;;;;;8.20;2.03;;;;;;;;;;5068159;28;20051;-76
2022/04/09 03:19:47;;;;;;;12.50;1.70;;;;;;;;;;5067431;28;20529;-75
2022/04/09 03:22:18;;;;;;;10.25;1.98;;;;;;;;;;5067658;28;20051;-75
2022/04/09 03:24:48;;;;;;;9.20;2.35;;;;;;;;;;5085420;28;20051;-76
2022/04/09 03:27:18;;;;;;;8.18;2.15;;;;;;;;;;5067970;28;20059;-76
2022/04/09 03:29:48;;;;;;;9.55;1.63;;;;;;;;;;5067813;28;20400;-75
2022/04/09 03:32:19;;;;;;;8.60;2.05;;;;;;;;;;5068198;28;20055;-76
2022/04/09 03:34:49;;;;;;;13.77;1.95;;;;;;;;;;5067723;28;20063;-76
2022/04/09 03:37:21;;;;;;;13.55;1.85;;;;;;;;;;5052681;28;20060;-75
2022/04/09 03:39:52;;;;;;;7.93;1.80;;;;;;;;;;5067848;28;21006;-75
2022/04/09 03:42:22;;;;;;;8.90;1.77;;;;;;;;;;5068055;28;20059;-75
2022/04/09 03:44:55;;;;;;;11.35;1.67;;;;;;;;;;5067914;28;20067;-75
2022/04/09 03:47:26;;;;;;;8.00;1.80;;;;;;;;;;5086689;28;20048;-75
2022/04/09 03:49:56;;;;;;;5.55;1.38;;;;;;;;;;5067805;28;20044;-75
2022/04/09 03:52:26;;;;;;;7.22;2.35;;;;;;;;;;5067180;28;20059;-76
2022/04/09 03:54:56;;;;;;;14.80;2.15;;;;;;;;;;5085997;28;20052;-76
2022/04/09 03:57:27;;;;;;;12.00;2.50;;;;;;;;;;5067558;28;20056;-75
2022/04/09 03:59:57;;;;;;;12.38;1.63;;;;;;;;;;5086305;28;20044;-75
2022/04/09 04:02:27;;;;;;;7.78;1.80;;;;;;;;;;5070816;28;20052;-75
2022/04/09 04:05:04;;;;;;;6.68;1.73;;;;;;;;;;5071581;28;20051;-76
2022/04/09 04:07:36;;;;;;;4.90;1.73;;;;;;;;;;5071892;28;20677;-76
2022/04/09 04:10:11;;;;;;;5.30;1.50;;;;;;;;;;5071205;28;20052;-75
2022/04/09 04:12:45;;;;;;;8.68;2.20;;;;;;;;;;5071605;28;20349;-76
2022/04/09 04:15:18;;;;;;;13.82;2.28;;;;;;;;;;5071306;28;20049;-75
2022/04/09 04:17:49;;;;;;;;;;;;;;;;;;5056112;28;20495;-75
2022/04/09 04:20:24;;;;;;;5.95;1.48;;;;;;;;;;5071112;28;19924;-76
2022/04/09 04:22:58;;;;;;;7.13;1.98;;;;;;;;;;5071740;28;20127;-75
2022/04/09 04:25:29;;;;;;;7.00;1.83;;;;;;;;;;5071051;28;20047;-75
2022/04/09 04:28:00;;;;;;;6.45;1.92;;;;;;;;;;5072193;28;20396;-75
2022/04/09 04:30:30;;;;;;;5.75;1.50;;;;;;;;;;5071374;28;20505;-75
2022/04/09 04:33:01;;;;;;;7.37;2.43;;;;;;;;;;5070516;28;20052;-75
2022/04/09 04:35:40;;;;;;;8.70;2.25;;;;;;;;;;5070694;28;20427;-76
2022/04/09 04:38:11;;;;;;;10.02;2.15;;;;;;;;;;5090065;28;20055;-75
2022/04/09 04:40:45;;;;;;;8.07;2.30;;;;;;;;;;5070801;28;20066;-76
2022/04/09 04:43:16;;;;;;;7.80;2.08;;;;;;;;;;5071497;28;20522;-75
2022/04/09 04:45:46;;;;;;;8.60;2.13;;;;;;;;;;5070784;28;20056;-75
2022/04/09 04:48:20;;;;;;;7.47;2.40;;;;;;;;;;5071036;28;20058;-76
2022/04/09 04:50:52;;;;;;;5.60;2.20;;;;;;;;;;5070418;28;20052;-75
2022/04/09 04:53:23;;;;;;;7.53;2.42;;;;;;;;;;5071171;28;20059;-75
2022/04/09 04:55:58;;;;;;;7.30;2.42;;;;;;;;;;5070955;28;20119;-75
2022/04/09 04:58:35;;;;;;;8.07;2.35;;;;;;;;;;5070778;28;20044;-75
2022/04/09 05:01:07;;;;;;;;;;;;;;;;;;5071570;28;20055;-75
2022/04/09 05:03:42;;;;;;;3.67;2.20;;;;;;;;;;5070342;28;20417;-76
2022/04/09 05:06:22;;;;;;;6.63;2.40;;;;;;;;;;5070326;28;20529;-75
2022/04/09 05:08:54;;;;;;;10.63;2.30;;;;;;;;;;5069355;28;20518;-75
2022/04/09 05:11:37;;;;;;;12.13;2.35;;;;;;;;;;5070675;28;20427;-75
2022/04/09 05:14:13;;;;;;;8.20;2.70;;;;;;;;;;5069858;28;20052;-76
2022/04/09 05:16:49;;;;;;;11.00;2.90;;;;;;;;;;5069981;28;20052;-75
2022/04/09 05:19:19;;;;;;;10.18;3.70;;;;;;;;;;5088884;28;20055;-76
2022/04/09 05:21:55;;;;;;;8.98;3.05;;;;;;;;;;5089060;28;20051;-75
2022/04/09 05:24:29;;;;;;;6.82;3.28;;;;;;;;;;5069964;28;20059;-75
2022/04/09 05:26:59;;;;;;;5.60;3.17;;;;;;;;;;5070534;28;20059;-75
2022/04/09 05:29:33;;;;;;;6.32;3.53;;;;;;;;;;5069723;28;20048;-75
2022/04/09 05:32:05;;;;;;;13.20;4.13;;;;;;;;;;5053878;28;20062;-75
2022/04/09 05:34:38;;;;;;;10.75;4.35;;;;;;;;;;5070259;28;20134;-76
2022/04/09 05:37:09;;;;;;;9.02;3.78;;;;;;;;;;5070637;28;20044;-76
2022/04/09 05:39:41;;;;;;;10.13;3.85;;;;;;;;;;5070235;28;20047;-76
2022/04/09 05:42:11;;;;;;;7.95;3.67;;;;;;;;;;5069371;28;20047;-76
2022/04/09 05:44:41;;;;;;;8.77;3.80;;;;;;;;;;5069931;28;20052;-76
2022/04/09 05:47:11;;;;;;;6.18;3.35;;;;;;;;;;5069887;28;20043;-75
2022/04/09 05:49:42;;;;;;;7.70;3.38;;;;;;;;;;5070281;28;20081;-75
2022/04/09 05:52:13;;;;;;;11.35;3.88;;;;;;;;;;5053653;28;20063;-75
2022/04/09 05:54:44;;;;;;;6.65;3.42;;;;;;;;;;5069350;28;20048;-75
2022/04/09 05:57:16;;;;;;;8.18;3.78;;;;;;;;;;5069788;28;20056;-75
2022/04/09 05:59:48;;;;;;;11.00;3.75;;;;;;;;;;5070260;28;20059;-76
2022/04/09 06:02:18;;;;;;;10.40;3.60;;;;;;;;;;5070767;28;20052;-75
2022/04/09 06:04:48;;;;;;;14.30;3.10;;;;;;;;;;5089625;28;20059;-75
2022/04/09 06:07:18;;;;;;;10.43;3.03;;;;;;;;;;5092289;28;20052;-76
2022/04/09 06:10:03;;;;;;;8.27;3.30;;;;;;;;;;5094396;28;20062;-76
2022/04/09 06:12:35;;;;;;;8.45;2.97;;;;;;;;;;5095215;28;20032;-76
2022/04/09 06:15:14;;;;;;;8.13;3.25;;;;;;;;;;5095207;28;20058;-76
2022/04/09 06:17:50;;;;;;;9.40;3.40;;;;;;;;;;5095441;28;20040;-76
2022/04/09 06:20:20;;;;;;;7.40;3.38;;;;;;;;;;5071744;28;20499;-76
2022/04/09 06:22:50;;;;;;;11.70;2.92;;;;;;;;;;5069500;28;20059;-76
2022/04/09 06:25:22;;;;;;;7.00;3.20;;;;;;;;;;5052528;28;20048;-76
2022/04/09 06:27:52;;;;;;;6.93;3.60;;;;;;;;;;5068858;28;20063;-75
2022/04/09 06:30:22;;;;;;;5.85;3.40;;;;;;;;;;5069223;28;20422;-75
2022/04/09 06:33:00;;;;;;;8.63;3.30;;;;;;;;;;5068788;28;20060;-75
2022/04/09 06:35:32;;;;;;;9.15;3.53;;;;;;;;;;5068603;28;20063;-75
2022/04/09 06:38:04;;;;;;;13.77;2.75;;;;;;;;;;5069132;28;20048;-75
2022/04/09 06:40:35;;;;;;;6.40;2.63;;;;;;;;;;5068650;28;20404;-75
2022/04/09 06:43:05;;;;;;;8.57;2.85;;;;;;;;;;5068528;28;20142;-76
2022/04/09 06:45:57;;;;;;;9.50;2.78;;;;;;;;;;5068794;28;20043;-76
2022/04/09 06:48:56;;;;;;;5.03;2.90;;;;;;;;;;5069112;28;20052;-75
2022/04/09 06:51:28;;;;;;;6.18;2.97;;;;;;;;;;5087650;28;20072;-75
2022/04/09 06:54:06;;;;;;;13.52;3.42;;;;;;;;;;5068287;28;20079;-75
2022/04/09 06:56:38;;;;;;;10.50;3.10;;;;;;;;;;5068179;28;20039;-75
2022/04/09 06:59:09;;;;;;;9.15;2.78;;;;;;;;;;5068301;28;20629;-76
2022/04/09 07:01:39;;;;;;;7.80;2.90;;;;;;;;;;5068857;28;20059;-75
2022/04/09 07:04:10;;;;;;;6.43;2.47;;;;;;;;;;5068708;28;20047;-75
2022/04/09 07:06:41;;;;;;;7.03;2.45;;;;;;;;;;5087231;28;20047;-75
2022/04/09 07:09:11;;;;;;;8.40;2.88;;;;;;;;;;5086773;28;20055;-76
2022/04/09 07:11:41;;;;;;;7.43;2.70;;;;;;;;;;5086965;28;20055;-76
2022/04/09 07:14:12;;;;;;;12.63;2.88;;;;;;;;;;5086071;28;20088;-75
2022/04/09 07:16:44;;;;;;;9.73;2.63;;;;;;;;;;5068512;28;20064;-77
2022/04/09 07:19:31;;;;;;;5.30;2.00;;;;;;;;;;5086229;28;20067;-77
2022/04/09 07:22:01;;;;;;;6.32;2.65;;;;;;;;;;5086755;28;20048;-77
2022/04/09 07:24:31;;;;;;;3.10;2.20;;;;;;;;;;5086936;28;20048;-76
2022/04/09 07:27:01;;;;;;;7.57;2.50;;;;;;;;;;5086719;28;20070;-75
2022/04/09 07:29:31;;;;;;;5.80;2.33;;;;;;;;;;5087472;28;20047;-77
2022/04/09 07:32:01;;;;;;;8.85;4.45;;;;;;;;;;5087047;28;20055;-77
2022/04/09 07:34:31;;;;;;;6.72;2.65;;;;;;;;;;5086282;28;20059;-76
2022/04/09 07:37:01;;;;;;;10.05;3.33;;;;;;;;;;5086417;28;20059;-76
2022/04/09 07:39:31;;;;;;;4.78;1.95;;;;;;;;;;5084084;28;20048;-76
2022/04/09 07:42:03;;;;;;;5.68;1.98;;;;;;;;;;5082367;28;20047;-77
2022/04/09 07:44:33;;;;;;;3.47;1.42;;;;;;;;;;5064185;28;20064;-76
2022/04/09 07:47:03;;;;;;;2.67;1.50;;;;;;;;;;5084326;28;20051;-77
2022/04/09 07:49:35;;;;;;;3.22;1.35;;;;;;;;;;5086844;28;20050;-77
2022/04/09 07:52:06;;;;;;;1.23;0.90;;;;;;;;;;5086856;28;20047;-76
2022/04/09 07:54:39;;;;;;;3.40;0.88;;;;;;;;;;5086450;28;20048;-75
2022/04/09 07:57:10;;;;;;;1.85;0.52;;;;;;;;;;5086853;28;20048;-75
2022/04/09 07:59:41;;;;;;;6.53;0.80;;;;;;;;;;5067662;28;20063;-76
2022/04/09 08:02:13;;;;;;;3.50;0.60;;;;;;;;;;5086446;28;20051;-75
2022/04/09 08:04:45;;;;;;;1.65;0.50;;;;;;;;;;5086812;28;20043;-75
2022/04/09 08:07:16;;;;;;;3.92;0.50;;;;;;;;;;5085805;28;20751;-75
2022/04/09 08:09:46;;;;;;;2.40;0.50;;;;;;;;;;5085898;28;20059;-76
2022/04/09 08:12:16;;;;;;;1.83;0.43;;;;;;;;;;5086057;28;20438;-76
2022/04/09 08:14:47;;;;;;;2.03;0.40;;;;;;;;;;5086095;28;20048;-76
2022/04/09 08:17:20;;;;;;;1.80;0.40;;;;;;;;;;5086788;28;20403;-76
2022/04/09 08:19:51;;;;;;;4.43;0.50;;;;;;;;;;5086079;28;20044;-76
2022/04/09 08:22:21;;;;;;;3.65;0.50;;;;;;;;;;5068340;28;20499;-75
2022/04/09 08:24:51;;;;;;;0.30;0.30;;;;;;;;;;5085887;28;20048;-76
2022/04/09 08:27:21;;;;;;;3.55;0.50;;;;;;;;;;5086141;28;20533;-75
2022/04/09 08:29:52;;;;;;;1.60;0.30;;;;;;;;;;5086243;28;20048;-75
2022/04/09 08:32:25;;;;;;;0.73;0.30;;;;;;;;;;5086091;28;20055;-75
2022/04/09 08:34:55;;;;;;;1.63;0.50;;;;;;;;;;5085432;28;20064;-76
2022/04/09 08:37:25;;;;;;;0.70;0.40;;;;;;;;;;5085600;28;20048;-76
2022/04/09 08:39:55;;;;;;;9.38;0.70;;;;;;;;;;5086634;28;20067;-75
2022/04/09 08:42:27;;;;;;;3.47;0.40;;;;;;;;;;5085728;28;20048;-76
2022/04/09 08:45:01;;;;;;;5.68;0.47;;;;;;;;;;5086132;28;20415;-76
2022/04/09 08:47:33;;;;;;;3.10;0.40;;;;;;;;;;5085699;28;20507;-76
2022/04/09 08:50:04;;;;;;;1.63;0.47;;;;;;;;;;5089518;28;20047;-76
2022/04/09 08:52:40;;;;;;;7.38;0.60;;;;;;;;;;5089360;28;20051;-76
2022/04/09 08:55:12;;;;;;;5.40;0.50;;;;;;;;;;5089202;28;20051;-75
2022/04/09 08:57:43;;;;;;;2.35;0.70;;;;;;;;;;5088656;28;20510;-75
2022/04/09 09:00:17;;;;;;;2.30;0.55;;;;;;;;;;5088859;28;20043;-76
2022/04/09 09:02:51;;;;;;;4.20;0.82;;;;;;;;;;5089571;28;20036;-76
2022/04/09 09:05:39;;;;;;;2.40;0.60;;;;;;;;;;5088881;28;20040;-75
2022/04/09 09:08:11;;;;;;;3.22;0.50;;;;;;;;;;5089114;28;20052;-75
2022/04/09 09:10:42;;;;;;;4.85;0.73;;;;;;;;;;5088714;28;20059;-76
2022/04/09 09:13:13;;;;;;;8.55;1.25;;;;;;;;;;5089196;28;20414;-75
2022/04/09 09:15:55;;;;;;;9.73;0.90;;;;;;;;;;5088965;28;20052;-75
2022/04/09 09:18:28;;;;;;;2.95;0.52;;;;;;;;;;5089210;28;20056;-76
2022/04/09 09:21:00;;;;;;;3.75;0.68;;;;;;;;;;5088027;28;20044;-74
2022/04/09 09:23:32;;;;;;;5.10;0.98;;;;;;;;;;5089196;28;20052;-76
2022/04/09 09:26:03;;;;;;;2.92;0.57;;;;;;;;;;5070453;28;20051;-74
2022/04/09 09:28:34;;;;;;;4.47;0.68;;;;;;;;;;5088854;28;20044;-75
2022/04/09 09:31:05;;;;;;;1.25;0.55;;;;;;;;;;5088657;28;20088;-75
2022/04/09 09:33:36;;;;;;;4.45;1.25;;;;;;;;;;5088738;28;20079;-75
2022/04/09 09:36:32;;;;;;;;;;;;;;;;;;5071168;28;20044;-75
2022/04/09 09:39:04;;;;;;;6.03;0.65;;;;;;;;;;5089197;28;20401;-75
2022/04/09 09:41:45;;;;;;;3.17;0.60;;;;;;;;;;5089086;28;20040;-75
2022/04/09 09:44:18;;;;;;;2.88;0.50;;;;;;;;;;5089135;28;20503;-76
2022/04/09 09:46:49;;;;;;;3.80;0.70;;;;;;;;;;5089109;28;20052;-76
2022/04/09 09:49:24;;;;;;;2.88;0.85;;;;;;;;;;5088600;28;20047;-76
2022/04/09 09:52:12;;;;;;;2.95;0.43;;;;;;;;;;5070556;28;20048;-75
2022/04/09 09:55:10;;;;;;;4.20;0.80;;;;;;;;;;5070963;28;20067;-76
2022/04/09 09:57:41;;;;;;;9.45;1.00;;;;;;;;;;5088047;28;20054;-75
2022/04/09 10:00:16;;;;;;;3.10;0.65;;;;;;;;;;5088644;28;20514;-76
2022/04/09 10:02:46;;;;;;;1.38;0.55;;;;;;;;;;5088600;28;20051;-75
2022/04/09 10:05:23;;;;;;;2.88;0.80;;;;;;;;;;5089422;28;20494;-75
2022/04/09 10:07:57;;;;;;;4.65;0.95;;;;;;;;;;5087491;28;20048;-76
2022/04/09 10:10:28;;;;;;;2.75;0.55;;;;;;;;;;5088159;28;20048;-76
2022/04/09 10:13:01;;;;;;;6.03;0.82;;;;;;;;;;5088824;28;20036;-76
2022/04/09 10:15:32;;;;;;;2.67;0.50;;;;;;;;;;5088803;28;20094;-77
2022/04/09 10:18:05;;;;;;;5.82;0.65;;;;;;;;;;5088186;28;20047;-76
2022/04/09 10:20:36;;;;;;;3.00;0.60;;;;;;;;;;5088154;28;20044;-77
2022/04/09 10:23:09;;;;;;;3.00;0.63;;;;;;;;;;5088260;28;20051;-76
2022/04/09 10:25:42;;;;;;;3.78;0.70;;;;;;;;;;5087459;28;20290;-79
2022/04/09 10:28:28;;;;;;;6.82;1.17;;;;;;;;;;5088144;28;20040;-78
2022/04/09 10:30:59;;;;;;;8.05;1.38;;;;;;;;;;5087984;28;20048;-77
2022/04/09 10:33:36;;;;;;;2.85;0.65;;;;;;;;;;5088051;28;20388;-77
2022/04/09 10:36:07;;;;;;;2.33;0.57;;;;;;;;;;5069487;28;20391;-80
2022/04/09 10:38:40;;;;;;;1.40;0.50;;;;;;;;;;5087343;28;20036;-76
2022/04/09 10:41:10;;;;;;;4.45;0.90;;;;;;;;;;5069437;28;20044;-76
2022/04/09 10:43:40;;;;;;;3.90;0.82;;;;;;;;;;5087165;28;20514;-76
2022/04/09 10:46:15;;;;;;;7.50;2.30;;;;;;;;;;5087025;28;20043;-76
2022/04/09 10:48:47;;;;;;;7.32;1.13;;;;;;;;;;5085668;28;20047;-76
2022/04/09 10:51:18;;;;;;;1.63;0.55;;;;;;;;;;5085053;28;20059;-77
2022/04/09 10:53:49;;;;;;;5.50;0.85;;;;;;;;;;5085134;28;20047;-76
2022/04/09 10:56:27;;;;;;;7.55;1.50;;;;;;;;;;5085321;28;20133;-76
2022/04/09 10:59:08;;;;;;;6.47;0.60;;;;;;;;;;5085467;28;20040;-76
2022/04/09 11:01:47;;;;;;;3.40;0.88;;;;;;;;;;5084824;28;20059;-75
2022/04/09 11:04:44;;;;;;;3.67;0.40;;;;;;;;;;5087318;28;20147;-78
2022/04/09 11:07:21;;;;;;;1.50;0.47;;;;;;;;;;5084483;28;20524;-77
2022/04/09 11:10:00;;;;;;;3.15;0.50;;;;;;;;;;5086926;28;20060;-75
2022/04/09 11:12:39;;;;;;;3.97;0.52;;;;;;;;;;5086754;28;20051;-77
2022/04/09 11:15:11;;;;;;;2.70;0.55;;;;;;;;;;5068214;28;20074;-77
2022/04/09 11:17:43;;;;;;;2.38;0.50;;;;;;;;;;5086359;28;20080;-76
2022/04/09 11:20:23;;;;;;;1.50;0.52;;;;;;;;;;5087351;28;20051;-77
2022/04/09 11:22:58;;;;;;;2.13;0.55;;;;;;;;;;5086952;28;20526;-77
2022/04/09 11:25:30;;;;;;;4.93;0.50;;;;;;;;;;5070040;28;20048;-76
2022/04/09 11:28:13;;;;;;;4.07;0.32;;;;;;;;;;5086846;28;20071;-77
2022/04/09 11:30:54;;;;;;;1.88;0.40;;;;;;;;;;5087145;28;20055;-77
2022/04/09 11:33:24;;;;;;;0.35;0.17;;;;;;;;;;5087356;28;20113;-77
2022/04/09 11:35:55;;;;;;;3.05;0.60;;;;;;;;;;5089338;28;20047;-78
2022/04/09 11:38:27;;;;;;;7.50;0.93;;;;;;;;;;5105167;28;20047;-77
2022/04/09 11:40:57;;;;;;;2.95;0.57;;;;;;;;;;5088874;28;20066;-78
2022/04/09 11:43:29;;;;;;;3.05;0.65;;;;;;;;;;5068037;28;20052;-79
2022/04/09 11:46:09;;;;;;;9.07;0.30;;;;;;;;;;5090213;28;20048;-78
2022/04/09 11:48:39;;;;;;;2.70;0.43;;;;;;;;;;5086543;28;20043;-78
2022/04/09 11:51:20;;;;;;;2.65;0.30;;;;;;;;;;5069162;28;20055;-78
2022/04/09 11:53:50;;;;;;;2.70;0.50;;;;;;;;;;5086405;28;20066;-78
2022/04/09 11:56:21;;;;;;;1.73;0.47;;;;;;;;;;5086512;28;20043;-81
2022/04/09 11:58:50;;;;;;;2.22;0.30;;;;;;;;;;5085630;28;20059;-78
2022/04/09 12:01:20;;;;;;;0.52;0.30;;;;;;;;;;5085725;28;20048;-78
2022/04/09 12:03:54;;;;;;;3.88;0.43;;;;;;;;;;5086914;28;20059;-77
2022/04/09 12:06:25;;;;;;;1.75;0.40;;;;;;;;;;5085836;28;21122;-78
2022/04/09 12:08:55;;;;;;;3.33;0.50;;;;;;;;;;5086930;28;20400;-77
2022/04/09 12:11:26;;;;;;;1.67;0.35;;;;;;;;;;5067758;28;20843;-78
2022/04/09 12:14:07;;;;;;;1.38;0.43;;;;;;;;;;5085297;28;20052;-78
2022/04/09 12:16:40;;;;;;;0.70;0.32;;;;;;;;;;5086274;28;20051;-78
2022/04/09 12:19:10;;;;;;;2.58;0.50;;;;;;;;;;5086104;28;20699;-77
2022/04/09 12:21:41;;;;;;;1.13;0.30;;;;;;;;;;5085513;28;20052;-77
2022/04/09 12:24:13;;;;;;;2.63;0.65;;;;;;;;;;5086810;28;20056;-79
2022/04/09 12:26:43;;;;;;;;;;;;;;;;;;5090456;28;20052;-77
2022/04/09 12:29:23;;;;;;;1.38;0.30;;;;;;;;;;5089305;28;20379;-76
2022/04/09 12:32:14;;;;;;;1.88;0.50;;;;;;;;;;5070196;28;20044;-78
2022/04/09 12:34:59;;;;;;;0.82;0.30;;;;;;;;;;5089455;28;20060;-77
2022/04/09 12:37:29;;;;;;;1.88;0.30;;;;;;;;;;5089746;28;20040;-76
2022/04/09 12:40:21;;;;;;;0.93;0.30;;;;;;;;;;5089452;28;20047;-77
2022/04/09 12:42:51;;;;;;;0.63;0.20;;;;;;;;;;5089258;28;20039;-77
2022/04/09 12:45:27;;;;;;;3.78;0.43;;;;;;;;;;5089627;28;20048;-76
2022/04/09 12:48:00;;;;;;;1.25;0.20;;;;;;;;;;5089012;28;20525;-76
2022/04/09 12:50:33;;;;;;;1.38;0.30;;;;;;;;;;5089632;28;20494;-78
2022/04/09 12:53:05;;;;;;;0.77;0.30;;;;;;;;;;5089125;28;20044;-79
2022/04/09 12:55:37;;;;;;;1.92;0.43;;;;;;;;;;5088274;28;20059;-77
2022/04/09 12:58:07;;;;;;;0.77;0.30;;;;;;;;;;5089002;28;20801;-77
2022/04/09 13:00:38;;;;;;;2.47;0.38;;;;;;;;;;5088334;28;20430;-77
2022/04/09 13:03:09;;;;;;;0.52;0.15;;;;;;;;;;5088644;28;20044;-76
2022/04/09 13:05:42;;;;;;;2.17;0.30;;;;;;;;;;5089251;28;20055;-75
2022/04/09 13:08:13;;;;;;;2.92;0.40;;;;;;;;;;5089265;28;20056;-77
2022/04/09 13:10:42;;;;;;;6.45;0.40;;;;;;;;;;5071346;28;20040;-76
2022/04/09 13:13:13;;;;;;;1.30;0.47;;;;;;;;;;5087231;28;20416;-75
2022/04/09 13:15:43;;;;;;;3.00;0.52;;;;;;;;;;5086340;28;20531;-76
2022/04/09 13:18:13;;;;;;;1.40;0.47;;;;;;;;;;5087929;28;20040;-77
2022/04/09 13:20:44;;;;;;;0.20;0.20;;;;;;;;;;5087816;28;20061;-75
2022/04/09 13:23:13;;;;;;;1.30;0.10;;;;;;;;;;5088331;28;20067;-76
2022/04/09 13:25:44;;;;;;;0.73;0.30;;;;;;;;;;5054029;28;20526;-77
2022/04/09 13:28:14;;;;;;;2.47;0.30;;;;;;;;;;5088982;28;20048;-79
2022/04/09 13:30:44;;;;;;;0.70;0.20;;;;;;;;;;5088541;28;20052;-78
2022/04/09 13:33:14;;;;;;;2.35;0.25;;;;;;;;;;5088142;28;20063;-77
2022/04/09 13:35:46;;;;;;;1.80;0.30;;;;;;;;;;5069795;28;20055;-79
2022/04/09 13:38:16;;;;;;;2.22;0.38;;;;;;;;;;5088736;28;20110;-80
2022/04/09 13:40:46;;;;;;;1.85;0.20;;;;;;;;;;5088422;28;20051;-77
2022/04/09 13:43:17;;;;;;;0.87;0.27;;;;;;;;;;5087975;28;20507;-77
2022/04/09 13:45:47;;;;;;;1.30;0.30;;;;;;;;;;5088770;28;20048;-78
2022/04/09 13:48:17;;;;;;;1.25;0.20;;;;;;;;;;5088916;28;20068;-77
2022/04/09 13:50:47;;;;;;;0.63;0.47;;;;;;;;;;5088313;28;20051;-76
2022/04/09 13:53:17;;;;;;;1.80;0.20;;;;;;;;;;5070672;28;20514;-76
2022/04/09 13:55:47;;;;;;;1.40;0.20;;;;;;;;;;5088133;28;20047;-76
2022/04/09 13:58:18;;;;;;;3.13;0.43;;;;;;;;;;5088046;28;20877;-77
2022/04/09 14:00:48;;;;;;;13.38;1.20;;;;;;;;;;5090156;28;20040;-77
2022/04/09 14:03:18;;;;;;;1.08;0.30;;;;;;;;;;5095450;28;20059;-77
2022/04/09 14:05:48;;;;;;;0.13;0.10;;;;;;;;;;5096809;28;20040;-78
2022/04/09 14:08:18;;;;;;;0.60;0.20;;;;;;;;;;5096670;28;20051;-76
2022/04/09 14:10:48;;;;;;;0.28;0.20;;;;;;;;;;5087772;28;20059;-78
2022/04/09 14:13:18;;;;;;;7.28;0.55;;;;;;;;;;5070933;28;20044;-76
2022/04/09 14:15:50;;;;;;;1.70;0.13;;;;;;;;;;5086220;28;20044;-75
2022/04/09 14:18:21;;;;;;;0.15;0.15;;;;;;;;;;5087559;28;19931;-76
2022/04/09 14:20:51;;;;;;;2.57;0.40;;;;;;;;;;5070060;28;20423;-78
2022/04/09 14:23:25;;;;;;;0.47;0.20;;;;;;;;;;5068866;28;20490;-78
2022/04/09 14:25:55;;;;;;;1.10;0.23;;;;;;;;;;5069777;28;20056;-77
2022/04/09 14:28:26;;;;;;;0.47;0.10;;;;;;;;;;5087366;28;20044;-75
2022/04/09 14:30:56;;;;;;;1.25;0.17;;;;;;;;;;5098053;28;20050;-76
2022/04/09 14:33:26;;;;;;;0.20;0.20;;;;;;;;;;5092752;28;20087;-77
2022/04/09 14:35:57;;;;;;;1.20;0.20;;;;;;;;;;5068711;28;20526;-77
2022/04/09 14:38:26;;;;;;;1.27;0.20;;;;;;;;;;5087851;28;20056;-77
2022/04/09 14:40:56;;;;;;;0.25;0.20;;;;;;;;;;5087224;28;20051;-77
2022/04/09 14:43:31;;;;;;;0.20;0.20;;;;;;;;;;5087066;28;20052;-76
2022/04/09 14:46:02;;;;;;;1.85;0.22;;;;;;;;;;5086069;28;20506;-76
2022/04/09 14:48:37;;;;;;;2.38;0.38;;;;;;;;;;5086478;28;20526;-79
2022/04/09 14:51:11;;;;;;;0.20;0.10;;;;;;;;;;5069307;28;20041;-75
2022/04/09 14:53:43;;;;;;;2.38;0.35;;;;;;;;;;5068902;28;20051;-77
2022/04/09 14:56:15;;;;;;;0.20;0.20;;;;;;;;;;5087230;28;20059;-78
2022/04/09 14:58:45;;;;;;;0.57;0.30;;;;;;;;;;5087027;28;20062;-77
2022/04/09 15:01:17;;;;;;;3.28;1.13;;;;;;;;;;5067174;28;20529;-76
2022/04/09 15:03:47;;;;;;;0.20;0.20;;;;;;;;;;5088040;28;20506;-76
2022/04/09 15:06:18;;;;;;;1.08;0.50;;;;;;;;;;5068829;28;20054;-76
2022/04/09 15:08:49;;;;;;;0.65;0.65;;;;;;;;;;5087488;28;20051;-76
2022/04/09 15:11:23;;;;;;;0.85;0.32;;;;;;;;;;5085764;28;20052;-75
2022/04/09 15:13:56;;;;;;;0.38;0.30;;;;;;;;;;5086691;28;20048;-77